sensor_id;sensor_type;location;lat;lon;timestamp;temperature;humidity
68701;DHT22;55682;51.114;5.882;2023-06-14T00:00:18;20.61;44.42
68701;DHT22;55682;51.114;5.882;2023-06-14T00:02:45;20.57;44.51
68701;DHT22;55682;51.114;5.882;2023-06-14T00:05:11;20.53;44.53
68701;DHT22;55682;51.114;5.882;2023-06-14T00:07:41;20.50;44.48
68701;DHT22;55682;51.114;5.882;2023-06-14T00:10:14;20.51;44.54
68701;DHT22;55682;51.114;5.882;2023-06-14T00:12:40;20.54;44.66
68701;DHT22;55682;51.114;5.882;2023-06-14T00:15:07;20.54;44.73
68701;DHT22;55682;51.114;5.882;2023-06-14T00:17:36;20.51;44.82
68701;DHT22;55682;51.114;5.882;2023-06-14T00:20:03;20.48;45.06
68701;DHT22;55682;51.114;5.882;2023-06-14T00:22:32;20.47;45.21
68701;DHT22;55682;51.114;5.882;2023-06-14T00:24:58;20.46;45.36
68701;DHT22;55682;51.114;5.882;2023-06-14T00:27:23;20.40;45.50
68701;DHT22;55682;51.114;5.882;2023-06-14T00:29:50;20.39;45.38
68701;DHT22;55682;51.114;5.882;2023-06-14T00:32:16;20.34;45.26
68701;DHT22;55682;51.114;5.882;2023-06-14T00:34:41;20.24;45.26
68701;DHT22;55682;51.114;5.882;2023-06-14T00:37:07;20.15;45.48
68701;DHT22;55682;51.114;5.882;2023-06-14T00:39:34;20.10;45.67
68701;DHT22;55682;51.114;5.882;2023-06-14T00:42:00;20.09;45.93
68701;DHT22;55682;51.114;5.882;2023-06-14T00:44:25;20.02;46.50
68701;DHT22;55682;51.114;5.882;2023-06-14T00:46:51;19.95;46.93
68701;DHT22;55682;51.114;5.882;2023-06-14T00:49:18;19.89;47.33
68701;DHT22;55682;51.114;5.882;2023-06-14T00:51:45;19.80;47.67
68701;DHT22;55682;51.114;5.882;2023-06-14T00:54:10;19.77;47.73
68701;DHT22;55682;51.114;5.882;2023-06-14T00:56:37;19.74;47.98
68701;DHT22;55682;51.114;5.882;2023-06-14T00:59:03;19.73;48.13
68701;DHT22;55682;51.114;5.882;2023-06-14T01:01:30;19.70;48.34
68701;DHT22;55682;51.114;5.882;2023-06-14T01:04:00;19.65;48.55
68701;DHT22;55682;51.114;5.882;2023-06-14T01:15:30;19.32;49.24
68701;DHT22;55682;51.114;5.882;2023-06-14T01:17:56;19.27;49.48
68701;DHT22;55682;51.114;5.882;2023-06-14T01:20:30;19.23;49.66
68701;DHT22;55682;51.114;5.882;2023-06-14T01:22:56;19.17;50.05
68701;DHT22;55682;51.114;5.882;2023-06-14T01:25:23;19.12;50.20
68701;DHT22;55682;51.114;5.882;2023-06-14T01:30:25;18.99;50.25
68701;DHT22;55682;51.114;5.882;2023-06-14T01:32:53;18.96;50.35
68701;DHT22;55682;51.114;5.882;2023-06-14T01:35:20;18.97;50.40
68701;DHT22;55682;51.114;5.882;2023-06-14T01:37:49;18.98;50.36
68701;DHT22;55682;51.114;5.882;2023-06-14T01:40:19;18.97;50.24
68701;DHT22;55682;51.114;5.882;2023-06-14T01:42:47;18.96;50.14
68701;DHT22;55682;51.114;5.882;2023-06-14T01:45:16;18.95;50.08
68701;DHT22;55682;51.114;5.882;2023-06-14T01:47:44;18.94;49.98
68701;DHT22;55682;51.114;5.882;2023-06-14T01:50:10;18.95;49.79
68701;DHT22;55682;51.114;5.882;2023-06-14T01:52:37;18.94;49.63
68701;DHT22;55682;51.114;5.882;2023-06-14T01:55:04;18.96;49.53
68701;DHT22;55682;51.114;5.882;2023-06-14T01:57:30;18.95;49.48
68701;DHT22;55682;51.114;5.882;2023-06-14T01:59:56;18.91;49.54
68701;DHT22;55682;51.114;5.882;2023-06-14T02:02:21;18.92;49.54
68701;DHT22;55682;51.114;5.882;2023-06-14T02:04:47;18.88;49.63
68701;DHT22;55682;51.114;5.882;2023-06-14T02:07:13;18.86;49.85
68701;DHT22;55682;51.114;5.882;2023-06-14T02:09:41;18.84;50.00
68701;DHT22;55682;51.114;5.882;2023-06-14T02:12:08;18.80;50.05
68701;DHT22;55682;51.114;5.882;2023-06-14T02:14:33;18.78;50.14
68701;DHT22;55682;51.114;5.882;2023-06-14T02:17:00;18.76;50.20
68701;DHT22;55682;51.114;5.882;2023-06-14T02:19:26;18.69;50.31
68701;DHT22;55682;51.114;5.882;2023-06-14T02:21:52;18.64;50.37
68701;DHT22;55682;51.114;5.882;2023-06-14T02:24:18;18.65;50.28
68701;DHT22;55682;51.114;5.882;2023-06-14T02:26:44;18.67;50.21
68701;DHT22;55682;51.114;5.882;2023-06-14T02:29:14;18.64;50.24
68701;DHT22;55682;51.114;5.882;2023-06-14T02:31:40;18.61;50.40
68701;DHT22;55682;51.114;5.882;2023-06-14T02:34:06;18.55;50.59
68701;DHT22;55682;51.114;5.882;2023-06-14T02:36:34;18.54;50.78
68701;DHT22;55682;51.114;5.882;2023-06-14T02:39:00;18.49;51.10
68701;DHT22;55682;51.114;5.882;2023-06-14T02:41:26;18.42;51.45
68701;DHT22;55682;51.114;5.882;2023-06-14T02:43:53;18.33;51.84
68701;DHT22;55682;51.114;5.882;2023-06-14T02:46:19;18.28;52.15
68701;DHT22;55682;51.114;5.882;2023-06-14T02:48:44;18.22;52.46
68701;DHT22;55682;51.114;5.882;2023-06-14T02:51:11;18.18;52.58
68701;DHT22;55682;51.114;5.882;2023-06-14T02:53:38;18.15;52.61
68701;DHT22;55682;51.114;5.882;2023-06-14T02:56:04;18.15;52.65
68701;DHT22;55682;51.114;5.882;2023-06-14T02:58:30;18.14;52.62
68701;DHT22;55682;51.114;5.882;2023-06-14T03:00:57;18.11;52.70
68701;DHT22;55682;51.114;5.882;2023-06-14T03:03:23;18.11;52.73
68701;DHT22;55682;51.114;5.882;2023-06-14T03:05:54;18.10;52.68
68701;DHT22;55682;51.114;5.882;2023-06-14T03:08:23;18.10;52.68
68701;DHT22;55682;51.114;5.882;2023-06-14T03:10:52;18.07;52.75
68701;DHT22;55682;51.114;5.882;2023-06-14T03:13:18;18.02;52.93
68701;DHT22;55682;51.114;5.882;2023-06-14T03:15:48;17.95;53.14
68701;DHT22;55682;51.114;5.882;2023-06-14T03:18:16;17.94;53.22
68701;DHT22;55682;51.114;5.882;2023-06-14T03:20:42;17.93;53.30
68701;DHT22;55682;51.114;5.882;2023-06-14T03:23:12;17.91;53.43
68701;DHT22;55682;51.114;5.882;2023-06-14T03:25:39;17.89;53.56
68701;DHT22;55682;51.114;5.882;2023-06-14T03:28:09;17.91;53.58
68701;DHT22;55682;51.114;5.882;2023-06-14T03:30:34;17.90;53.69
68701;DHT22;55682;51.114;5.882;2023-06-14T03:33:01;17.90;53.72
68701;DHT22;55682;51.114;5.882;2023-06-14T03:35:28;17.89;53.75
68701;DHT22;55682;51.114;5.882;2023-06-14T03:37:54;17.92;53.73
68701;DHT22;55682;51.114;5.882;2023-06-14T03:40:21;17.90;53.77
68701;DHT22;55682;51.114;5.882;2023-06-14T03:42:51;17.99;53.62
68701;DHT22;55682;51.114;5.882;2023-06-14T03:45:18;18.12;53.37
68701;DHT22;55682;51.114;5.882;2023-06-14T03:47:44;18.37;52.88
68701;DHT22;55682;51.114;5.882;2023-06-14T03:50:10;18.71;52.09
68701;DHT22;55682;51.114;5.882;2023-06-14T03:52:36;19.08;51.22
68701;DHT22;55682;51.114;5.882;2023-06-14T03:55:02;19.50;50.30
68701;DHT22;55682;51.114;5.882;2023-06-14T03:57:29;19.88;49.23
68701;DHT22;55682;51.114;5.882;2023-06-14T03:59:56;20.26;48.31
68701;DHT22;55682;51.114;5.882;2023-06-14T04:02:22;20.63;47.38
68701;DHT22;55682;51.114;5.882;2023-06-14T04:04:50;21.04;46.48
68701;DHT22;55682;51.114;5.882;2023-06-14T04:07:17;21.46;45.45
68701;DHT22;55682;51.114;5.882;2023-06-14T04:09:46;21.78;44.56
68701;DHT22;55682;51.114;5.882;2023-06-14T04:12:12;22.08;43.98
68701;DHT22;55682;51.114;5.882;2023-06-14T04:14:39;22.40;43.35
68701;DHT22;55682;51.114;5.882;2023-06-14T04:17:07;22.76;42.57
68701;DHT22;55682;51.114;5.882;2023-06-14T04:19:33;23.05;42.03
68701;DHT22;55682;51.114;5.882;2023-06-14T04:21:59;23.38;41.35
68701;DHT22;55682;51.114;5.882;2023-06-14T04:24:27;23.71;40.52
68701;DHT22;55682;51.114;5.882;2023-06-14T04:26:58;24.01;39.79
68701;DHT22;55682;51.114;5.882;2023-06-14T04:29:25;24.40;38.91
68701;DHT22;55682;51.114;5.882;2023-06-14T04:31:58;24.54;38.59
68701;DHT22;55682;51.114;5.882;2023-06-14T04:34:28;24.82;38.24
68701;DHT22;55682;51.114;5.882;2023-06-14T04:37:00;25.13;37.73
68701;DHT22;55682;51.114;5.882;2023-06-14T04:39:35;25.30;37.29
68701;DHT22;55682;51.114;5.882;2023-06-14T04:42:02;25.21;37.32
68701;DHT22;55682;51.114;5.882;2023-06-14T04:44:29;25.18;37.57
68701;DHT22;55682;51.114;5.882;2023-06-14T04:47:00;25.35;37.11
68701;DHT22;55682;51.114;5.882;2023-06-14T04:49:25;25.44;36.78
68701;DHT22;55682;51.114;5.882;2023-06-14T04:51:52;25.84;36.33
68701;DHT22;55682;51.114;5.882;2023-06-14T04:54:24;26.17;35.55
68701;DHT22;55682;51.114;5.882;2023-06-14T04:56:51;26.28;35.15
68701;DHT22;55682;51.114;5.882;2023-06-14T04:59:19;26.32;35.08
68701;DHT22;55682;51.114;5.882;2023-06-14T05:01:45;26.41;34.93
68701;DHT22;55682;51.114;5.882;2023-06-14T05:04:15;26.75;34.58
68701;DHT22;55682;51.114;5.882;2023-06-14T05:06:44;27.12;33.80
68701;DHT22;55682;51.114;5.882;2023-06-14T05:09:11;27.50;32.86
68701;DHT22;55682;51.114;5.882;2023-06-14T05:11:37;27.54;32.74
68701;DHT22;55682;51.114;5.882;2023-06-14T05:14:03;27.75;32.38
68701;DHT22;55682;51.114;5.882;2023-06-14T05:16:29;28.26;31.35
68701;DHT22;55682;51.114;5.882;2023-06-14T05:18:55;28.68;30.61
68701;DHT22;55682;51.114;5.882;2023-06-14T05:21:21;29.16;29.49
68701;DHT22;55682;51.114;5.882;2023-06-14T05:23:46;29.07;29.76
68701;DHT22;55682;51.114;5.882;2023-06-14T05:26:12;29.01;29.97
68701;DHT22;55682;51.114;5.882;2023-06-14T05:28:38;29.00;29.86
68701;DHT22;55682;51.114;5.882;2023-06-14T05:31:03;28.92;30.03
68701;DHT22;55682;51.114;5.882;2023-06-14T05:33:29;28.91;30.17
68701;DHT22;55682;51.114;5.882;2023-06-14T05:35:54;29.27;29.63
68701;DHT22;55682;51.114;5.882;2023-06-14T05:38:21;29.72;28.71
68701;DHT22;55682;51.114;5.882;2023-06-14T05:40:46;29.75;28.41
68701;DHT22;55682;51.114;5.882;2023-06-14T05:43:12;29.44;28.86
68701;DHT22;55682;51.114;5.882;2023-06-14T05:45:37;29.44;29.06
68701;DHT22;55682;51.114;5.882;2023-06-14T05:48:03;29.72;28.70
68701;DHT22;55682;51.114;5.882;2023-06-14T05:50:30;29.93;28.30
68701;DHT22;55682;51.114;5.882;2023-06-14T05:52:56;30.18;27.84
68701;DHT22;55682;51.114;5.882;2023-06-14T05:55:21;30.59;27.28
68701;DHT22;55682;51.114;5.882;2023-06-14T05:57:47;31.22;26.34
68701;DHT22;55682;51.114;5.882;2023-06-14T06:00:14;31.60;25.57
68701;DHT22;55682;51.114;5.882;2023-06-14T06:02:44;31.46;25.73
68701;DHT22;55682;51.114;5.882;2023-06-14T06:05:12;31.40;26.19
68701;DHT22;55682;51.114;5.882;2023-06-14T06:07:38;31.88;25.49
68701;DHT22;55682;51.114;5.882;2023-06-14T06:10:06;32.55;23.98
68701;DHT22;55682;51.114;5.882;2023-06-14T06:12:32;32.52;23.51
68701;DHT22;55682;51.114;5.882;2023-06-14T06:14:58;32.26;24.43
68701;DHT22;55682;51.114;5.882;2023-06-14T06:17:25;32.00;24.36
68701;DHT22;55682;51.114;5.882;2023-06-14T06:19:51;31.67;25.14
68701;DHT22;55682;51.114;5.882;2023-06-14T06:22:17;31.68;24.85
68701;DHT22;55682;51.114;5.882;2023-06-14T06:24:43;31.60;25.01
68701;DHT22;55682;51.114;5.882;2023-06-14T06:27:08;32.04;24.01
68701;DHT22;55682;51.114;5.882;2023-06-14T06:29:34;32.00;23.97
68701;DHT22;55682;51.114;5.882;2023-06-14T06:32:01;31.69;23.53
68701;DHT22;55682;51.114;5.882;2023-06-14T06:34:27;31.57;23.96
68701;DHT22;55682;51.114;5.882;2023-06-14T06:36:52;31.65;24.35
68701;DHT22;55682;51.114;5.882;2023-06-14T06:39:18;31.76;23.72
68701;DHT22;55682;51.114;5.882;2023-06-14T06:41:43;31.66;24.13
68701;DHT22;55682;51.114;5.882;2023-06-14T06:44:09;31.53;24.32
68701;DHT22;55682;51.114;5.882;2023-06-14T06:46:39;31.89;23.95
68701;DHT22;55682;51.114;5.882;2023-06-14T06:49:07;32.12;23.42
68701;DHT22;55682;51.114;5.882;2023-06-14T06:51:32;32.55;22.82
68701;DHT22;55682;51.114;5.882;2023-06-14T06:53:58;32.58;22.37
68701;DHT22;55682;51.114;5.882;2023-06-14T06:56:24;32.87;22.14
68701;DHT22;55682;51.114;5.882;2023-06-14T06:58:50;32.83;22.24
68701;DHT22;55682;51.114;5.882;2023-06-14T07:01:16;32.13;21.64
68701;DHT22;55682;51.114;5.882;2023-06-14T07:03:43;31.30;22.41
68701;DHT22;55682;51.114;5.882;2023-06-14T07:06:08;30.94;23.15
68701;DHT22;55682;51.114;5.882;2023-06-14T07:08:34;30.68;23.57
68701;DHT22;55682;51.114;5.882;2023-06-14T07:11:01;30.39;23.84
68701;DHT22;55682;51.114;5.882;2023-06-14T07:13:27;30.35;24.08
68701;DHT22;55682;51.114;5.882;2023-06-14T07:15:59;30.60;23.47
68701;DHT22;55682;51.114;5.882;2023-06-14T07:18:26;30.77;23.72
68701;DHT22;55682;51.114;5.882;2023-06-14T07:20:53;31.16;23.30
68701;DHT22;55682;51.114;5.882;2023-06-14T07:23:20;31.64;22.59
68701;DHT22;55682;51.114;5.882;2023-06-14T07:25:46;31.96;22.02
68701;DHT22;55682;51.114;5.882;2023-06-14T07:28:12;31.65;22.31
68701;DHT22;55682;51.114;5.882;2023-06-14T07:30:37;31.53;22.66
68701;DHT22;55682;51.114;5.882;2023-06-14T07:33:03;32.15;22.22
68701;DHT22;55682;51.114;5.882;2023-06-14T07:35:29;33.22;20.83
68701;DHT22;55682;51.114;5.882;2023-06-14T07:37:54;33.16;19.59
68701;DHT22;55682;51.114;5.882;2023-06-14T07:40:20;32.53;20.02
68701;DHT22;55682;51.114;5.882;2023-06-14T07:42:46;31.36;21.62
68701;DHT22;55682;51.114;5.882;2023-06-14T07:45:13;31.15;22.14
68701;DHT22;55682;51.114;5.882;2023-06-14T07:47:40;31.38;22.19
68701;DHT22;55682;51.114;5.882;2023-06-14T07:50:05;31.19;22.40
68701;DHT22;55682;51.114;5.882;2023-06-14T07:52:33;31.31;21.87
68701;DHT22;55682;51.114;5.882;2023-06-14T07:54:59;31.10;22.55
68701;DHT22;55682;51.114;5.882;2023-06-14T07:57:25;31.13;22.40
68701;DHT22;55682;51.114;5.882;2023-06-14T07:59:51;31.99;21.63
68701;DHT22;55682;51.114;5.882;2023-06-14T08:02:16;32.73;20.43
68701;DHT22;55682;51.114;5.882;2023-06-14T08:04:42;33.03;20.30
68701;DHT22;55682;51.114;5.882;2023-06-14T08:07:08;33.49;20.00
68701;DHT22;55682;51.114;5.882;2023-06-14T08:09:35;32.94;19.87
68701;DHT22;55682;51.114;5.882;2023-06-14T08:12:04;32.60;19.22
68701;DHT22;55682;51.114;5.882;2023-06-14T08:14:33;32.35;19.51
68701;DHT22;55682;51.114;5.882;2023-06-14T08:16:59;31.66;20.99
68701;DHT22;55682;51.114;5.882;2023-06-14T08:19:24;31.80;21.10
68701;DHT22;55682;51.114;5.882;2023-06-14T08:21:50;32.17;20.47
68701;DHT22;55682;51.114;5.882;2023-06-14T08:24:16;32.43;20.35
68701;DHT22;55682;51.114;5.882;2023-06-14T08:26:42;32.47;19.34
68701;DHT22;55682;51.114;5.882;2023-06-14T08:29:07;32.74;19.65
68701;DHT22;55682;51.114;5.882;2023-06-14T08:31:34;32.47;19.93
68701;DHT22;55682;51.114;5.882;2023-06-14T08:33:59;32.82;19.65
68701;DHT22;55682;51.114;5.882;2023-06-14T08:36:25;32.79;19.25
68701;DHT22;55682;51.114;5.882;2023-06-14T08:38:50;32.85;19.02
68701;DHT22;55682;51.114;5.882;2023-06-14T08:41:22;33.36;19.29
68701;DHT22;55682;51.114;5.882;2023-06-14T08:43:52;34.14;17.46
68701;DHT22;55682;51.114;5.882;2023-06-14T08:46:19;33.75;18.00
68701;DHT22;55682;51.114;5.882;2023-06-14T08:48:49;34.20;17.94
68701;DHT22;55682;51.114;5.882;2023-06-14T08:51:19;35.16;16.87
68701;DHT22;55682;51.114;5.882;2023-06-14T08:53:52;35.01;16.10
68701;DHT22;55682;51.114;5.882;2023-06-14T08:56:19;34.98;16.99
68701;DHT22;55682;51.114;5.882;2023-06-14T08:58:46;36.11;15.71
68701;DHT22;55682;51.114;5.882;2023-06-14T09:01:13;37.10;14.73
68701;DHT22;55682;51.114;5.882;2023-06-14T09:03:43;37.44;14.23
68701;DHT22;55682;51.114;5.882;2023-06-14T09:06:10;37.78;13.91
68701;DHT22;55682;51.114;5.882;2023-06-14T09:08:42;37.55;12.62
68701;DHT22;55682;51.114;5.882;2023-06-14T09:11:11;37.19;12.97
68701;DHT22;55682;51.114;5.882;2023-06-14T09:13:38;37.00;13.62
68701;DHT22;55682;51.114;5.882;2023-06-14T09:16:04;37.37;13.20
68701;DHT22;55682;51.114;5.882;2023-06-14T09:18:38;37.12;13.20
68701;DHT22;55682;51.114;5.882;2023-06-14T09:21:08;36.55;12.39
68701;DHT22;55682;51.114;5.882;2023-06-14T09:23:37;35.97;14.17
68701;DHT22;55682;51.114;5.882;2023-06-14T09:26:08;35.85;13.87
68701;DHT22;55682;51.114;5.882;2023-06-14T09:28:34;35.99;13.27
68701;DHT22;55682;51.114;5.882;2023-06-14T09:31:01;36.07;13.44
68701;DHT22;55682;51.114;5.882;2023-06-14T09:33:27;36.83;12.53
68701;DHT22;55682;51.114;5.882;2023-06-14T09:35:55;37.71;11.39
68701;DHT22;55682;51.114;5.882;2023-06-14T09:38:21;37.58;10.75
68701;DHT22;55682;51.114;5.882;2023-06-14T09:40:46;37.52;10.41
68701;DHT22;55682;51.114;5.882;2023-06-14T09:43:12;36.57;11.81
68701;DHT22;55682;51.114;5.882;2023-06-14T09:45:39;35.14;12.67
68701;DHT22;55682;51.114;5.882;2023-06-14T09:48:07;34.02;13.01
68701;DHT22;55682;51.114;5.882;2023-06-14T09:50:34;33.92;13.33
68701;DHT22;55682;51.114;5.882;2023-06-14T09:53:06;34.73;12.53
68701;DHT22;55682;51.114;5.882;2023-06-14T09:55:36;35.42;12.01
68701;DHT22;55682;51.114;5.882;2023-06-14T09:58:05;35.04;10.69
68701;DHT22;55682;51.114;5.882;2023-06-14T10:00:32;35.24;11.07
68701;DHT22;55682;51.114;5.882;2023-06-14T10:03:14;35.03;11.78
68701;DHT22;55682;51.114;5.882;2023-06-14T10:05:45;36.19;10.37
68701;DHT22;55682;51.114;5.882;2023-06-14T10:08:17;37.27;9.79
68701;DHT22;55682;51.114;5.882;2023-06-14T10:10:43;36.88;10.24
68701;DHT22;55682;51.114;5.882;2023-06-14T10:13:11;36.30;11.04
68701;DHT22;55682;51.114;5.882;2023-06-14T10:24:06;36.07;10.59
68701;DHT22;55682;51.114;5.882;2023-06-14T10:26:33;36.99;10.08
68701;DHT22;55682;51.114;5.882;2023-06-14T10:29:09;36.91;10.05
68701;DHT22;55682;51.114;5.882;2023-06-14T10:31:55;36.81;10.57
68701;DHT22;55682;51.114;5.882;2023-06-14T10:34:25;37.02;10.23
68701;DHT22;55682;51.114;5.882;2023-06-14T10:37:07;36.96;10.52
68701;DHT22;55682;51.114;5.882;2023-06-14T10:39:42;36.12;11.67
68701;DHT22;55682;51.114;5.882;2023-06-14T10:42:09;36.45;11.57
68701;DHT22;55682;51.114;5.882;2023-06-14T10:44:39;37.06;11.36
68701;DHT22;55682;51.114;5.882;2023-06-14T10:52:28;37.69;10.47
68701;DHT22;55682;51.114;5.882;2023-06-14T10:57:53;37.00;10.98
68701;DHT22;55682;51.114;5.882;2023-06-14T11:00:26;38.00;10.14
68701;DHT22;55682;51.114;5.882;2023-06-14T11:05:51;36.85;11.17
68701;DHT22;55682;51.114;5.882;2023-06-14T11:08:32;35.63;12.27
68701;DHT22;55682;51.114;5.882;2023-06-14T11:11:09;34.88;13.87
68701;DHT22;55682;51.114;5.882;2023-06-14T11:13:45;33.67;14.97
68701;DHT22;55682;51.114;5.882;2023-06-14T11:16:12;33.44;15.27
68701;DHT22;55682;51.114;5.882;2023-06-14T11:18:38;34.02;14.76
68701;DHT22;55682;51.114;5.882;2023-06-14T11:21:04;33.45;15.58
68701;DHT22;55682;51.114;5.882;2023-06-14T11:23:30;33.29;16.53
68701;DHT22;55682;51.114;5.882;2023-06-14T11:25:55;32.97;16.90
68701;DHT22;55682;51.114;5.882;2023-06-14T11:28:21;33.49;16.54
68701;DHT22;55682;51.114;5.882;2023-06-14T11:31:00;34.05;15.67
68701;DHT22;55682;51.114;5.882;2023-06-14T11:33:25;34.50;15.61
68701;DHT22;55682;51.114;5.882;2023-06-14T11:35:52;35.57;13.96
68701;DHT22;55682;51.114;5.882;2023-06-14T11:38:17;36.43;12.62
68701;DHT22;55682;51.114;5.882;2023-06-14T11:40:43;37.02;12.24
68701;DHT22;55682;51.114;5.882;2023-06-14T11:43:09;37.51;11.60
68701;DHT22;55682;51.114;5.882;2023-06-14T11:45:34;37.89;11.23
68701;DHT22;55682;51.114;5.882;2023-06-14T11:48:00;37.78;11.54
68701;DHT22;55682;51.114;5.882;2023-06-14T11:50:27;37.94;11.62
68701;DHT22;55682;51.114;5.882;2023-06-14T11:52:59;37.82;11.56
68701;DHT22;55682;51.114;5.882;2023-06-14T11:55:35;37.11;13.45
68701;DHT22;55682;51.114;5.882;2023-06-14T11:58:01;36.39;14.16
68701;DHT22;55682;51.114;5.882;2023-06-14T12:00:27;35.14;14.82
68701;DHT22;55682;51.114;5.882;2023-06-14T12:02:54;34.14;15.84
68701;DHT22;55682;51.114;5.882;2023-06-14T12:05:23;33.22;17.46
68701;DHT22;55682;51.114;5.882;2023-06-14T12:07:49;32.01;18.77
68701;DHT22;55682;51.114;5.882;2023-06-14T12:10:16;31.79;19.03
68701;DHT22;55682;51.114;5.882;2023-06-14T12:12:42;30.84;20.53
68701;DHT22;55682;51.114;5.882;2023-06-14T12:15:09;30.26;21.35
68701;DHT22;55682;51.114;5.882;2023-06-14T12:17:38;29.15;23.27
68701;DHT22;55682;51.114;5.882;2023-06-14T12:20:14;28.69;23.30
68701;DHT22;55682;51.114;5.882;2023-06-14T12:25:34;29.17;22.02
68701;DHT22;55682;51.114;5.882;2023-06-14T12:28:06;29.74;21.22
68701;DHT22;55682;51.114;5.882;2023-06-14T12:30:33;30.31;20.37
68701;DHT22;55682;51.114;5.882;2023-06-14T12:32:59;30.74;19.75
68701;DHT22;55682;51.114;5.882;2023-06-14T12:35:25;30.24;20.63
68701;DHT22;55682;51.114;5.882;2023-06-14T12:37:51;29.81;20.73
68701;DHT22;55682;51.114;5.882;2023-06-14T12:40:17;28.93;21.72
68701;DHT22;55682;51.114;5.882;2023-06-14T12:42:44;28.55;22.53
68701;DHT22;55682;51.114;5.882;2023-06-14T12:45:10;28.37;22.72
68701;DHT22;55682;51.114;5.882;2023-06-14T12:47:35;28.92;21.32
68701;DHT22;55682;51.114;5.882;2023-06-14T12:50:01;29.07;21.11
68701;DHT22;55682;51.114;5.882;2023-06-14T12:52:27;29.21;20.93
68701;DHT22;55682;51.114;5.882;2023-06-14T12:54:52;29.34;20.62
68701;DHT22;55682;51.114;5.882;2023-06-14T12:57:18;29.42;20.88
68701;DHT22;55682;51.114;5.882;2023-06-14T12:59:43;28.99;22.27
68701;DHT22;55682;51.114;5.882;2023-06-14T13:02:14;28.76;22.01
68701;DHT22;55682;51.114;5.882;2023-06-14T13:04:40;28.63;22.24
68701;DHT22;55682;51.114;5.882;2023-06-14T13:07:06;28.43;22.85
68701;DHT22;55682;51.114;5.882;2023-06-14T13:09:31;28.69;23.75
68701;DHT22;55682;51.114;5.882;2023-06-14T13:11:57;28.57;23.27
68701;DHT22;55682;51.114;5.882;2023-06-14T13:14:23;28.58;23.30
68701;DHT22;55682;51.114;5.882;2023-06-14T13:16:48;28.77;23.55
68701;DHT22;55682;51.114;5.882;2023-06-14T13:19:14;28.91;23.36
68701;DHT22;55682;51.114;5.882;2023-06-14T13:21:39;28.80;22.94
68701;DHT22;55682;51.114;5.882;2023-06-14T13:24:05;28.57;24.24
68701;DHT22;55682;51.114;5.882;2023-06-14T13:26:32;28.84;23.59
68701;DHT22;55682;51.114;5.882;2023-06-14T13:28:58;28.83;23.46
68701;DHT22;55682;51.114;5.882;2023-06-14T13:31:24;29.20;22.78
68701;DHT22;55682;51.114;5.882;2023-06-14T13:33:49;29.37;22.88
68701;DHT22;55682;51.114;5.882;2023-06-14T13:36:15;29.26;22.52
68701;DHT22;55682;51.114;5.882;2023-06-14T13:38:42;28.79;22.99
68701;DHT22;55682;51.114;5.882;2023-06-14T13:41:08;28.85;22.64
68701;DHT22;55682;51.114;5.882;2023-06-14T13:43:34;29.28;21.65
68701;DHT22;55682;51.114;5.882;2023-06-14T13:45:59;29.59;21.19
68701;DHT22;55682;51.114;5.882;2023-06-14T13:48:26;29.42;20.99
68701;DHT22;55682;51.114;5.882;2023-06-14T13:50:51;29.01;21.29
68701;DHT22;55682;51.114;5.882;2023-06-14T13:53:17;28.55;20.99
68701;DHT22;55682;51.114;5.882;2023-06-14T13:55:43;28.61;21.63
68701;DHT22;55682;51.114;5.882;2023-06-14T13:58:09;29.14;21.21
68701;DHT22;55682;51.114;5.882;2023-06-14T14:00:34;29.52;21.16
68701;DHT22;55682;51.114;5.882;2023-06-14T14:03:03;29.21;21.59
68701;DHT22;55682;51.114;5.882;2023-06-14T14:05:28;29.06;22.40
68701;DHT22;55682;51.114;5.882;2023-06-14T14:07:56;29.12;22.80
68701;DHT22;55682;51.114;5.882;2023-06-14T14:10:24;28.48;22.05
68701;DHT22;55682;51.114;5.882;2023-06-14T14:12:51;28.02;23.30
68701;DHT22;55682;51.114;5.882;2023-06-14T14:15:18;27.88;23.99
68701;DHT22;55682;51.114;5.882;2023-06-14T14:17:43;28.14;24.14
68701;DHT22;55682;51.114;5.882;2023-06-14T14:20:09;28.39;23.79
68701;DHT22;55682;51.114;5.882;2023-06-14T14:22:38;28.85;23.85
68701;DHT22;55682;51.114;5.882;2023-06-14T14:25:03;29.31;23.72
68701;DHT22;55682;51.114;5.882;2023-06-14T14:27:29;29.09;23.67
68701;DHT22;55682;51.114;5.882;2023-06-14T14:29:55;28.72;24.19
68701;DHT22;55682;51.114;5.882;2023-06-14T14:32:20;28.55;24.73
68701;DHT22;55682;51.114;5.882;2023-06-14T14:34:46;28.44;25.02
68701;DHT22;55682;51.114;5.882;2023-06-14T14:37:11;28.78;24.17
68701;DHT22;55682;51.114;5.882;2023-06-14T14:39:38;28.55;25.15
68701;DHT22;55682;51.114;5.882;2023-06-14T14:42:04;28.59;25.00
68701;DHT22;55682;51.114;5.882;2023-06-14T14:44:30;28.56;25.07
68701;DHT22;55682;51.114;5.882;2023-06-14T14:46:56;28.75;24.96
68701;DHT22;55682;51.114;5.882;2023-06-14T14:49:22;29.18;24.32
68701;DHT22;55682;51.114;5.882;2023-06-14T14:51:47;29.06;24.36
68701;DHT22;55682;51.114;5.882;2023-06-14T14:54:13;28.63;25.81
68701;DHT22;55682;51.114;5.882;2023-06-14T14:56:38;28.33;26.84
68701;DHT22;55682;51.114;5.882;2023-06-14T14:59:04;28.59;26.14
68701;DHT22;55682;51.114;5.882;2023-06-14T15:01:30;28.71;25.52
68701;DHT22;55682;51.114;5.882;2023-06-14T15:03:56;28.58;25.68
68701;DHT22;55682;51.114;5.882;2023-06-14T15:06:21;28.64;25.33
68701;DHT22;55682;51.114;5.882;2023-06-14T15:08:47;28.55;25.50
68701;DHT22;55682;51.114;5.882;2023-06-14T15:11:12;28.77;24.94
68701;DHT22;55682;51.114;5.882;2023-06-14T15:13:38;28.77;25.27
68701;DHT22;55682;51.114;5.882;2023-06-14T15:16:04;28.50;25.57
68701;DHT22;55682;51.114;5.882;2023-06-14T15:18:30;28.63;25.39
68701;DHT22;55682;51.114;5.882;2023-06-14T15:20:55;28.83;25.36
68701;DHT22;55682;51.114;5.882;2023-06-14T15:23:21;28.86;25.29
68701;DHT22;55682;51.114;5.882;2023-06-14T15:25:47;28.97;25.01
68701;DHT22;55682;51.114;5.882;2023-06-14T15:28:13;28.73;25.14
68701;DHT22;55682;51.114;5.882;2023-06-14T15:30:39;28.50;25.43
68701;DHT22;55682;51.114;5.882;2023-06-14T15:33:04;28.49;25.78
68701;DHT22;55682;51.114;5.882;2023-06-14T15:35:30;28.11;26.10
68701;DHT22;55682;51.114;5.882;2023-06-14T15:37:56;27.90;26.73
68701;DHT22;55682;51.114;5.882;2023-06-14T15:40:21;27.89;26.38
68701;DHT22;55682;51.114;5.882;2023-06-14T15:42:47;27.69;27.11
68701;DHT22;55682;51.114;5.882;2023-06-14T15:45:13;27.90;26.70
68701;DHT22;55682;51.114;5.882;2023-06-14T15:47:39;27.82;26.97
68701;DHT22;55682;51.114;5.882;2023-06-14T15:50:05;28.06;26.52
68701;DHT22;55682;51.114;5.882;2023-06-14T15:52:33;28.38;25.94
68701;DHT22;55682;51.114;5.882;2023-06-14T15:54:59;28.82;25.34
68701;DHT22;55682;51.114;5.882;2023-06-14T15:57:25;28.85;25.13
68701;DHT22;55682;51.114;5.882;2023-06-14T15:59:51;28.76;25.68
68701;DHT22;55682;51.114;5.882;2023-06-14T16:02:18;28.70;25.91